sensor_id;sensor_type;location;lat;lon;timestamp;P1;durP1;ratioP1;P2;durP2;ratioP2
15856;SDS011;8028;53.612;10.038;2022-08-19T00:01:49;18.67;;;16.77;;
15856;SDS011;8028;53.612;10.038;2022-08-19T00:04:17;20.08;;;18.08;;
15856;SDS011;8028;53.612;10.038;2022-08-19T00:06:45;22.02;;;19.63;;
15856;SDS011;8028;53.612;10.038;2022-08-19T00:09:12;23.17;;;20.77;;
15856;SDS011;8028;53.612;10.038;2022-08-19T00:11:40;22.05;;;19.80;;
15856;SDS011;8028;53.612;10.038;2022-08-19T00:14:06;24.75;;;21.60;;
15856;SDS011;8028;53.612;10.038;2022-08-19T00:16:35;24.67;;;22.13;;
15856;SDS011;8028;53.612;10.038;2022-08-19T00:19:02;26.95;;;21.40;;
15856;SDS011;8028;53.612;10.038;2022-08-19T00:21:28;23.17;;;20.65;;
15856;SDS011;8028;53.612;10.038;2022-08-19T00:23:54;25.55;;;21.40;;
15856;SDS011;8028;53.612;10.038;2022-08-19T00:26:23;23.13;;;19.75;;
15856;SDS011;8028;53.612;10.038;2022-08-19T00:28:50;23.45;;;20.20;;
15856;SDS011;8028;53.612;10.038;2022-08-19T00:31:15;22.17;;;19.85;;
15856;SDS011;8028;53.612;10.038;2022-08-19T00:33:42;26.55;;;21.75;;
15856;SDS011;8028;53.612;10.038;2022-08-19T00:36:08;25.25;;;21.05;;
15856;SDS011;8028;53.612;10.038;2022-08-19T00:38:34;24.17;;;21.58;;
15856;SDS011;8028;53.612;10.038;2022-08-19T00:41:02;24.45;;;20.10;;
15856;SDS011;8028;53.612;10.038;2022-08-19T00:43:28;23.50;;;21.00;;
15856;SDS011;8028;53.612;10.038;2022-08-19T00:45:53;30.02;;;21.10;;
15856;SDS011;8028;53.612;10.038;2022-08-19T00:48:20;27.50;;;21.63;;
15856;SDS011;8028;53.612;10.038;2022-08-19T00:50:47;28.50;;;20.65;;
15856;SDS011;8028;53.612;10.038;2022-08-19T00:53:16;25.08;;;21.15;;
15856;SDS011;8028;53.612;10.038;2022-08-19T00:55:46;25.23;;;22.05;;
15856;SDS011;8028;53.612;10.038;2022-08-19T00:58:15;29.00;;;22.10;;
15856;SDS011;8028;53.612;10.038;2022-08-19T01:00:43;29.63;;;21.33;;
15856;SDS011;8028;53.612;10.038;2022-08-19T01:03:13;25.10;;;22.50;;
15856;SDS011;8028;53.612;10.038;2022-08-19T01:05:41;22.55;;;18.95;;
15856;SDS011;8028;53.612;10.038;2022-08-19T01:08:08;26.25;;;21.30;;
15856;SDS011;8028;53.612;10.038;2022-08-19T01:10:37;22.10;;;19.80;;
15856;SDS011;8028;53.612;10.038;2022-08-19T01:13:06;23.00;;;19.13;;
15856;SDS011;8028;53.612;10.038;2022-08-19T01:15:38;21.65;;;19.27;;
15856;SDS011;8028;53.612;10.038;2022-08-19T01:18:12;21.77;;;19.48;;
15856;SDS011;8028;53.612;10.038;2022-08-19T01:20:40;23.83;;;19.45;;
15856;SDS011;8028;53.612;10.038;2022-08-19T01:23:07;23.27;;;20.20;;
15856;SDS011;8028;53.612;10.038;2022-08-19T01:26:06;25.48;;;21.27;;
15856;SDS011;8028;53.612;10.038;2022-08-19T01:28:26;23.55;;;19.67;;
15856;SDS011;8028;53.612;10.038;2022-08-19T01:30:53;23.80;;;19.95;;
15856;SDS011;8028;53.612;10.038;2022-08-19T01:33:20;26.60;;;20.73;;
15856;SDS011;8028;53.612;10.038;2022-08-19T01:35:46;24.98;;;20.90;;
15856;SDS011;8028;53.612;10.038;2022-08-19T01:38:20;25.20;;;19.98;;
15856;SDS011;8028;53.612;10.038;2022-08-19T01:40:48;23.80;;;20.38;;
15856;SDS011;8028;53.612;10.038;2022-08-19T01:43:14;27.30;;;22.42;;
15856;SDS011;8028;53.612;10.038;2022-08-19T01:45:40;23.58;;;21.02;;
15856;SDS011;8028;53.612;10.038;2022-08-19T01:48:06;25.13;;;22.05;;
15856;SDS011;8028;53.612;10.038;2022-08-19T01:50:33;23.15;;;20.42;;
15856;SDS011;8028;53.612;10.038;2022-08-19T01:53:00;28.92;;;21.50;;
15856;SDS011;8028;53.612;10.038;2022-08-19T01:55:28;31.42;;;23.95;;
15856;SDS011;8028;53.612;10.038;2022-08-19T01:57:55;30.77;;;24.40;;
15856;SDS011;8028;53.612;10.038;2022-08-19T02:00:25;26.67;;;23.05;;
15856;SDS011;8028;53.612;10.038;2022-08-19T02:02:52;29.17;;;24.75;;
15856;SDS011;8028;53.612;10.038;2022-08-19T02:05:19;30.42;;;23.85;;
15856;SDS011;8028;53.612;10.038;2022-08-19T02:07:46;33.65;;;23.92;;
15856;SDS011;8028;53.612;10.038;2022-08-19T02:10:14;30.35;;;24.80;;
15856;SDS011;8028;53.612;10.038;2022-08-19T02:12:46;33.05;;;25.27;;
15856;SDS011;8028;53.612;10.038;2022-08-19T02:15:12;31.80;;;25.35;;
15856;SDS011;8028;53.612;10.038;2022-08-19T02:17:38;39.72;;;26.25;;
15856;SDS011;8028;53.612;10.038;2022-08-19T02:20:05;29.58;;;23.63;;
15856;SDS011;8028;53.612;10.038;2022-08-19T02:22:32;30.95;;;22.65;;
15856;SDS011;8028;53.612;10.038;2022-08-19T02:24:58;27.25;;;22.58;;
15856;SDS011;8028;53.612;10.038;2022-08-19T02:27:24;32.40;;;23.33;;
15856;SDS011;8028;53.612;10.038;2022-08-19T02:29:50;32.78;;;23.98;;
15856;SDS011;8028;53.612;10.038;2022-08-19T02:32:17;32.10;;;22.85;;
15856;SDS011;8028;53.612;10.038;2022-08-19T02:34:44;33.28;;;23.30;;
15856;SDS011;8028;53.612;10.038;2022-08-19T02:37:11;29.60;;;23.95;;
15856;SDS011;8028;53.612;10.038;2022-08-19T02:39:57;28.08;;;23.50;;
15856;SDS011;8028;53.612;10.038;2022-08-19T02:42:23;31.63;;;23.50;;
15856;SDS011;8028;53.612;10.038;2022-08-19T02:44:48;28.00;;;23.48;;
15856;SDS011;8028;53.612;10.038;2022-08-19T02:47:14;33.78;;;24.95;;
15856;SDS011;8028;53.612;10.038;2022-08-19T02:49:40;40.17;;;24.63;;
15856;SDS011;8028;53.612;10.038;2022-08-19T02:52:06;32.40;;;26.30;;
15856;SDS011;8028;53.612;10.038;2022-08-19T02:54:32;31.30;;;25.17;;
15856;SDS011;8028;53.612;10.038;2022-08-19T02:56:57;33.65;;;24.15;;
15856;SDS011;8028;53.612;10.038;2022-08-19T02:59:23;32.95;;;24.20;;
15856;SDS011;8028;53.612;10.038;2022-08-19T03:01:50;37.65;;;26.52;;
15856;SDS011;8028;53.612;10.038;2022-08-19T03:04:16;32.17;;;25.27;;
15856;SDS011;8028;53.612;10.038;2022-08-19T03:06:44;40.70;;;25.88;;
15856;SDS011;8028;53.612;10.038;2022-08-19T03:09:11;36.58;;;25.83;;
15856;SDS011;8028;53.612;10.038;2022-08-19T03:11:38;36.97;;;25.05;;
15856;SDS011;8028;53.612;10.038;2022-08-19T03:14:05;39.25;;;26.67;;
15856;SDS011;8028;53.612;10.038;2022-08-19T03:16:33;41.90;;;26.30;;
15856;SDS011;8028;53.612;10.038;2022-08-19T03:19:04;39.13;;;24.75;;
15856;SDS011;8028;53.612;10.038;2022-08-19T03:21:32;36.80;;;25.33;;
15856;SDS011;8028;53.612;10.038;2022-08-19T03:24:03;42.10;;;26.83;;
15856;SDS011;8028;53.612;10.038;2022-08-19T03:26:31;41.67;;;26.23;;
15856;SDS011;8028;53.612;10.038;2022-08-19T03:29:00;35.05;;;25.52;;
15856;SDS011;8028;53.612;10.038;2022-08-19T03:31:27;39.95;;;25.88;;
15856;SDS011;8028;53.612;10.038;2022-08-19T03:33:53;34.58;;;24.52;;
15856;SDS011;8028;53.612;10.038;2022-08-19T03:36:20;35.17;;;24.77;;
15856;SDS011;8028;53.612;10.038;2022-08-19T03:38:49;39.17;;;24.02;;
15856;SDS011;8028;53.612;10.038;2022-08-19T03:41:18;36.65;;;22.75;;
15856;SDS011;8028;53.612;10.038;2022-08-19T03:43:46;37.58;;;24.75;;
15856;SDS011;8028;53.612;10.038;2022-08-19T03:46:13;33.45;;;22.15;;
15856;SDS011;8028;53.612;10.038;2022-08-19T03:48:41;30.35;;;23.23;;
15856;SDS011;8028;53.612;10.038;2022-08-19T03:51:15;33.85;;;22.63;;
15856;SDS011;8028;53.612;10.038;2022-08-19T03:53:49;28.77;;;22.42;;
15856;SDS011;8028;53.612;10.038;2022-08-19T03:56:15;34.83;;;24.90;;
15856;SDS011;8028;53.612;10.038;2022-08-19T03:58:42;36.40;;;24.50;;
15856;SDS011;8028;53.612;10.038;2022-08-19T04:01:09;31.02;;;24.35;;
15856;SDS011;8028;53.612;10.038;2022-08-19T04:03:38;29.92;;;23.02;;
15856;SDS011;8028;53.612;10.038;2022-08-19T04:06:15;35.40;;;23.17;;
15856;SDS011;8028;53.612;10.038;2022-08-19T04:08:43;33.75;;;22.95;;
15856;SDS011;8028;53.612;10.038;2022-08-19T04:11:11;31.13;;;23.25;;
15856;SDS011;8028;53.612;10.038;2022-08-19T04:13:38;27.00;;;22.27;;
15856;SDS011;8028;53.612;10.038;2022-08-19T04:16:04;31.88;;;24.52;;
15856;SDS011;8028;53.612;10.038;2022-08-19T04:18:31;33.03;;;23.98;;
15856;SDS011;8028;53.612;10.038;2022-08-19T04:20:58;30.95;;;23.30;;
15856;SDS011;8028;53.612;10.038;2022-08-19T04:23:24;39.33;;;25.80;;
15856;SDS011;8028;53.612;10.038;2022-08-19T04:25:52;33.90;;;26.23;;
15856;SDS011;8028;53.612;10.038;2022-08-19T04:28:17;33.65;;;24.35;;
15856;SDS011;8028;53.612;10.038;2022-08-19T04:30:44;37.17;;;26.92;;
15856;SDS011;8028;53.612;10.038;2022-08-19T04:33:13;43.28;;;29.48;;
15856;SDS011;8028;53.612;10.038;2022-08-19T04:35:41;41.25;;;27.63;;
15856;SDS011;8028;53.612;10.038;2022-08-19T04:38:09;44.72;;;29.10;;
15856;SDS011;8028;53.612;10.038;2022-08-19T04:40:42;45.83;;;29.42;;
15856;SDS011;8028;53.612;10.038;2022-08-19T04:43:27;38.08;;;28.08;;
15856;SDS011;8028;53.612;10.038;2022-08-19T04:45:53;43.80;;;29.48;;
15856;SDS011;8028;53.612;10.038;2022-08-19T04:48:20;47.10;;;30.55;;
15856;SDS011;8028;53.612;10.038;2022-08-19T04:50:51;44.97;;;28.88;;
15856;SDS011;8028;53.612;10.038;2022-08-19T04:53:22;47.25;;;30.13;;
15856;SDS011;8028;53.612;10.038;2022-08-19T04:55:53;48.50;;;32.15;;
15856;SDS011;8028;53.612;10.038;2022-08-19T04:58:21;41.53;;;32.33;;
15856;SDS011;8028;53.612;10.038;2022-08-19T05:00:47;44.78;;;30.52;;
15856;SDS011;8028;53.612;10.038;2022-08-19T05:03:12;37.00;;;30.13;;
15856;SDS011;8028;53.612;10.038;2022-08-19T05:05:42;49.88;;;30.85;;
15856;SDS011;8028;53.612;10.038;2022-08-19T05:08:11;44.22;;;30.90;;
15856;SDS011;8028;53.612;10.038;2022-08-19T05:10:38;44.35;;;30.52;;
15856;SDS011;8028;53.612;10.038;2022-08-19T05:13:04;44.58;;;29.70;;
15856;SDS011;8028;53.612;10.038;2022-08-19T05:15:30;48.65;;;33.13;;
15856;SDS011;8028;53.612;10.038;2022-08-19T05:17:55;51.28;;;31.48;;
15856;SDS011;8028;53.612;10.038;2022-08-19T05:20:40;48.80;;;31.52;;
15856;SDS011;8028;53.612;10.038;2022-08-19T05:23:24;52.65;;;31.42;;
15856;SDS011;8028;53.612;10.038;2022-08-19T05:25:50;49.30;;;31.70;;
15856;SDS011;8028;53.612;10.038;2022-08-19T05:28:17;42.25;;;30.73;;
15856;SDS011;8028;53.612;10.038;2022-08-19T05:30:44;46.75;;;29.58;;
15856;SDS011;8028;53.612;10.038;2022-08-19T05:33:10;41.30;;;29.73;;
15856;SDS011;8028;53.612;10.038;2022-08-19T05:35:39;39.75;;;31.08;;
15856;SDS011;8028;53.612;10.038;2022-08-19T05:38:06;37.35;;;29.98;;
15856;SDS011;8028;53.612;10.038;2022-08-19T05:40:34;42.00;;;30.80;;
15856;SDS011;8028;53.612;10.038;2022-08-19T05:43:07;35.70;;;28.50;;
15856;SDS011;8028;53.612;10.038;2022-08-19T05:45:37;38.05;;;29.20;;
15856;SDS011;8028;53.612;10.038;2022-08-19T05:48:04;41.63;;;30.55;;
15856;SDS011;8028;53.612;10.038;2022-08-19T05:50:30;42.60;;;32.47;;
15856;SDS011;8028;53.612;10.038;2022-08-19T05:52:55;47.63;;;31.70;;
15856;SDS011;8028;53.612;10.038;2022-08-19T05:55:21;42.28;;;29.30;;
15856;SDS011;8028;53.612;10.038;2022-08-19T05:57:48;44.53;;;30.50;;
15856;SDS011;8028;53.612;10.038;2022-08-19T06:00:13;44.83;;;30.70;;
15856;SDS011;8028;53.612;10.038;2022-08-19T06:02:40;43.30;;;31.80;;
15856;SDS011;8028;53.612;10.038;2022-08-19T06:05:06;44.60;;;30.92;;
15856;SDS011;8028;53.612;10.038;2022-08-19T06:07:37;43.55;;;29.05;;
15856;SDS011;8028;53.612;10.038;2022-08-19T06:10:04;45.80;;;29.83;;
15856;SDS011;8028;53.612;10.038;2022-08-19T06:12:34;37.78;;;28.77;;
15856;SDS011;8028;53.612;10.038;2022-08-19T06:15:01;47.63;;;31.63;;
15856;SDS011;8028;53.612;10.038;2022-08-19T06:17:29;43.53;;;29.13;;
15856;SDS011;8028;53.612;10.038;2022-08-19T06:19:55;42.47;;;28.35;;
15856;SDS011;8028;53.612;10.038;2022-08-19T06:22:21;41.42;;;28.00;;
15856;SDS011;8028;53.612;10.038;2022-08-19T06:24:46;39.28;;;27.52;;
15856;SDS011;8028;53.612;10.038;2022-08-19T06:27:12;39.88;;;28.77;;
15856;SDS011;8028;53.612;10.038;2022-08-19T06:29:38;41.08;;;29.75;;
15856;SDS011;8028;53.612;10.038;2022-08-19T06:32:04;38.70;;;29.70;;
15856;SDS011;8028;53.612;10.038;2022-08-19T06:34:31;38.47;;;28.08;;
15856;SDS011;8028;53.612;10.038;2022-08-19T06:36:58;41.85;;;29.45;;
15856;SDS011;8028;53.612;10.038;2022-08-19T06:39:30;40.50;;;30.60;;
15856;SDS011;8028;53.612;10.038;2022-08-19T06:41:59;52.20;;;32.45;;
15856;SDS011;8028;53.612;10.038;2022-08-19T06:44:29;39.97;;;30.27;;
15856;SDS011;8028;53.612;10.038;2022-08-19T06:47:01;37.33;;;29.08;;
15856;SDS011;8028;53.612;10.038;2022-08-19T06:49:28;41.90;;;29.70;;
15856;SDS011;8028;53.612;10.038;2022-08-19T06:51:56;44.50;;;30.23;;
15856;SDS011;8028;53.612;10.038;2022-08-19T06:54:22;48.35;;;33.38;;
15856;SDS011;8028;53.612;10.038;2022-08-19T06:56:48;47.22;;;32.70;;
15856;SDS011;8028;53.612;10.038;2022-08-19T06:59:15;42.60;;;30.85;;
15856;SDS011;8028;53.612;10.038;2022-08-19T07:01:45;46.58;;;31.83;;
15856;SDS011;8028;53.612;10.038;2022-08-19T07:04:16;44.83;;;32.45;;
15856;SDS011;8028;53.612;10.038;2022-08-19T07:06:44;46.72;;;32.03;;
15856;SDS011;8028;53.612;10.038;2022-08-19T07:09:12;42.97;;;31.60;;
15856;SDS011;8028;53.612;10.038;2022-08-19T07:11:41;50.58;;;33.25;;
15856;SDS011;8028;53.612;10.038;2022-08-19T07:14:12;48.03;;;31.30;;
15856;SDS011;8028;53.612;10.038;2022-08-19T07:16:39;41.92;;;31.02;;
15856;SDS011;8028;53.612;10.038;2022-08-19T07:19:05;48.97;;;31.27;;
15856;SDS011;8028;53.612;10.038;2022-08-19T07:21:31;46.95;;;32.35;;
15856;SDS011;8028;53.612;10.038;2022-08-19T07:23:58;43.03;;;30.27;;
15856;SDS011;8028;53.612;10.038;2022-08-19T07:26:29;46.97;;;28.30;;
15856;SDS011;8028;53.612;10.038;2022-08-19T07:28:57;45.88;;;30.08;;
15856;SDS011;8028;53.612;10.038;2022-08-19T07:31:25;44.50;;;28.63;;
15856;SDS011;8028;53.612;10.038;2022-08-19T07:33:52;44.63;;;30.55;;
15856;SDS011;8028;53.612;10.038;2022-08-19T07:36:21;38.97;;;29.88;;
15856;SDS011;8028;53.612;10.038;2022-08-19T07:38:56;38.78;;;27.65;;
15856;SDS011;8028;53.612;10.038;2022-08-19T07:41:23;42.75;;;29.10;;
15856;SDS011;8028;53.612;10.038;2022-08-19T07:43:51;37.40;;;28.90;;
15856;SDS011;8028;53.612;10.038;2022-08-19T07:46:17;42.08;;;28.00;;
15856;SDS011;8028;53.612;10.038;2022-08-19T07:48:46;39.88;;;28.48;;
15856;SDS011;8028;53.612;10.038;2022-08-19T07:51:14;34.55;;;27.80;;
15856;SDS011;8028;53.612;10.038;2022-08-19T07:53:46;31.85;;;25.63;;
15856;SDS011;8028;53.612;10.038;2022-08-19T07:56:13;109.20;;;91.05;;
15856;SDS011;8028;53.612;10.038;2022-08-19T07:58:40;51.22;;;42.45;;
15856;SDS011;8028;53.612;10.038;2022-08-19T08:01:09;40.78;;;27.92;;
15856;SDS011;8028;53.612;10.038;2022-08-19T08:03:43;44.45;;;29.85;;
15856;SDS011;8028;53.612;10.038;2022-08-19T08:06:28;39.15;;;27.92;;
15856;SDS011;8028;53.612;10.038;2022-08-19T08:09:13;37.88;;;27.67;;
15856;SDS011;8028;53.612;10.038;2022-08-19T08:12:04;35.58;;;26.17;;
15856;SDS011;8028;53.612;10.038;2022-08-19T08:14:37;38.75;;;26.00;;
15856;SDS011;8028;53.612;10.038;2022-08-19T08:17:05;33.35;;;25.63;;
15856;SDS011;8028;53.612;10.038;2022-08-19T08:19:31;32.38;;;25.27;;
15856;SDS011;8028;53.612;10.038;2022-08-19T08:21:57;31.60;;;23.60;;
15856;SDS011;8028;53.612;10.038;2022-08-19T08:24:25;35.58;;;22.60;;
15856;SDS011;8028;53.612;10.038;2022-08-19T08:26:52;29.48;;;22.60;;
15856;SDS011;8028;53.612;10.038;2022-08-19T08:29:17;26.98;;;22.88;;
15856;SDS011;8028;53.612;10.038;2022-08-19T08:31:44;30.85;;;21.27;;
15856;SDS011;8028;53.612;10.038;2022-08-19T08:34:11;27.85;;;23.63;;
15856;SDS011;8028;53.612;10.038;2022-08-19T08:36:42;29.38;;;22.15;;
15856;SDS011;8028;53.612;10.038;2022-08-19T08:39:11;27.67;;;21.08;;
15856;SDS011;8028;53.612;10.038;2022-08-19T08:47:15;25.25;;;19.38;;
15856;SDS011;8028;53.612;10.038;2022-08-19T08:49:48;25.52;;;19.58;;
15856;SDS011;8028;53.612;10.038;2022-08-19T08:52:26;23.50;;;18.70;;
15856;SDS011;8028;53.612;10.038;2022-08-19T08:54:57;22.67;;;17.67;;
15856;SDS011;8028;53.612;10.038;2022-08-19T08:59:49;25.77;;;20.17;;
15856;SDS011;8028;53.612;10.038;2022-08-19T09:02:18;24.17;;;18.58;;
15856;SDS011;8028;53.612;10.038;2022-08-19T09:04:44;28.50;;;19.23;;
15856;SDS011;8028;53.612;10.038;2022-08-19T09:09:46;22.17;;;18.40;;
15856;SDS011;8028;53.612;10.038;2022-08-19T09:14:57;23.58;;;19.38;;
15856;SDS011;8028;53.612;10.038;2022-08-19T09:17:27;24.45;;;18.65;;
15856;SDS011;8028;53.612;10.038;2022-08-19T09:22:59;22.50;;;19.75;;
15856;SDS011;8028;53.612;10.038;2022-08-19T09:25:25;26.50;;;20.10;;
15856;SDS011;8028;53.612;10.038;2022-08-19T09:27:51;23.88;;;19.67;;
15856;SDS011;8028;53.612;10.038;2022-08-19T09:30:20;21.70;;;19.48;;
15856;SDS011;8028;53.612;10.038;2022-08-19T09:32:50;21.90;;;18.02;;
15856;SDS011;8028;53.612;10.038;2022-08-19T09:35:26;25.15;;;18.73;;
15856;SDS011;8028;53.612;10.038;2022-08-19T09:37:53;26.98;;;19.48;;
15856;SDS011;8028;53.612;10.038;2022-08-19T09:40:20;25.83;;;19.15;;
15856;SDS011;8028;53.612;10.038;2022-08-19T09:42:46;22.73;;;17.98;;
15856;SDS011;8028;53.612;10.038;2022-08-19T09:45:13;18.40;;;16.15;;
15856;SDS011;8028;53.612;10.038;2022-08-19T09:47:40;22.73;;;18.20;;
15856;SDS011;8028;53.612;10.038;2022-08-19T09:50:07;22.92;;;18.08;;
15856;SDS011;8028;53.612;10.038;2022-08-19T09:52:36;26.60;;;18.65;;
15856;SDS011;8028;53.612;10.038;2022-08-19T09:55:05;22.45;;;16.80;;
15856;SDS011;8028;53.612;10.038;2022-08-19T09:57:32;22.00;;;16.52;;
15856;SDS011;8028;53.612;10.038;2022-08-19T09:59:58;22.65;;;18.63;;
15856;SDS011;8028;53.612;10.038;2022-08-19T10:02:24;21.67;;;17.02;;
15856;SDS011;8028;53.612;10.038;2022-08-19T10:04:50;20.27;;;16.20;;
15856;SDS011;8028;53.612;10.038;2022-08-19T10:07:35;20.70;;;15.95;;
15856;SDS011;8028;53.612;10.038;2022-08-19T10:10:05;19.95;;;15.80;;
15856;SDS011;8028;53.612;10.038;2022-08-19T10:12:32;22.77;;;17.38;;
15856;SDS011;8028;53.612;10.038;2022-08-19T10:14:58;17.88;;;14.90;;
15856;SDS011;8028;53.612;10.038;2022-08-19T10:17:25;20.70;;;16.75;;
15856;SDS011;8028;53.612;10.038;2022-08-19T10:19:51;18.17;;;15.98;;
15856;SDS011;8028;53.612;10.038;2022-08-19T10:22:17;21.80;;;17.63;;
15856;SDS011;8028;53.612;10.038;2022-08-19T10:24:43;19.15;;;17.13;;
15856;SDS011;8028;53.612;10.038;2022-08-19T10:27:11;18.63;;;15.85;;
15856;SDS011;8028;53.612;10.038;2022-08-19T10:29:38;16.95;;;14.18;;
15856;SDS011;8028;53.612;10.038;2022-08-19T10:32:05;17.45;;;15.30;;
15856;SDS011;8028;53.612;10.038;2022-08-19T10:34:33;21.02;;;18.63;;
15856;SDS011;8028;53.612;10.038;2022-08-19T10:37:00;19.13;;;15.80;;
15856;SDS011;8028;53.612;10.038;2022-08-19T10:39:27;20.88;;;17.45;;
15856;SDS011;8028;53.612;10.038;2022-08-19T10:41:56;37.78;;;28.98;;
15856;SDS011;8028;53.612;10.038;2022-08-19T10:44:22;19.15;;;16.80;;
15856;SDS011;8028;53.612;10.038;2022-08-19T10:46:49;20.58;;;18.30;;
15856;SDS011;8028;53.612;10.038;2022-08-19T10:49:15;20.98;;;18.05;;
15856;SDS011;8028;53.612;10.038;2022-08-19T10:51:41;27.05;;;17.73;;
15856;SDS011;8028;53.612;10.038;2022-08-19T10:54:26;23.42;;;18.42;;
15856;SDS011;8028;53.612;10.038;2022-08-19T10:57:12;24.92;;;19.23;;
15856;SDS011;8028;53.612;10.038;2022-08-19T10:59:38;25.10;;;18.88;;
15856;SDS011;8028;53.612;10.038;2022-08-19T11:02:07;27.45;;;20.02;;
15856;SDS011;8028;53.612;10.038;2022-08-19T11:04:38;23.65;;;20.45;;
15856;SDS011;8028;53.612;10.038;2022-08-19T11:07:04;24.92;;;18.40;;
15856;SDS011;8028;53.612;10.038;2022-08-19T11:09:31;24.85;;;19.17;;
15856;SDS011;8028;53.612;10.038;2022-08-19T11:12:01;25.15;;;19.60;;
15856;SDS011;8028;53.612;10.038;2022-08-19T11:14:27;23.15;;;20.35;;
15856;SDS011;8028;53.612;10.038;2022-08-19T11:16:56;21.83;;;19.30;;
15856;SDS011;8028;53.612;10.038;2022-08-19T11:19:22;22.25;;;18.83;;
15856;SDS011;8028;53.612;10.038;2022-08-19T11:21:49;25.02;;;19.35;;
15856;SDS011;8028;53.612;10.038;2022-08-19T11:24:19;29.02;;;18.15;;
15856;SDS011;8028;53.612;10.038;2022-08-19T11:26:47;22.90;;;18.35;;
15856;SDS011;8028;53.612;10.038;2022-08-19T11:29:15;19.23;;;16.25;;
15856;SDS011;8028;53.612;10.038;2022-08-19T11:31:43;20.02;;;17.83;;
15856;SDS011;8028;53.612;10.038;2022-08-19T11:34:12;20.77;;;17.00;;
15856;SDS011;8028;53.612;10.038;2022-08-19T11:36:42;18.40;;;16.38;;
15856;SDS011;8028;53.612;10.038;2022-08-19T11:39:10;20.08;;;15.68;;
15856;SDS011;8028;53.612;10.038;2022-08-19T11:41:38;19.75;;;15.82;;
15856;SDS011;8028;53.612;10.038;2022-08-19T11:44:04;17.13;;;15.35;;
15856;SDS011;8028;53.612;10.038;2022-08-19T11:46:33;15.80;;;14.20;;
15856;SDS011;8028;53.612;10.038;2022-08-19T11:49:00;19.15;;;15.93;;
15856;SDS011;8028;53.612;10.038;2022-08-19T11:51:28;15.10;;;13.30;;
15856;SDS011;8028;53.612;10.038;2022-08-19T11:53:55;16.33;;;14.20;;
15856;SDS011;8028;53.612;10.038;2022-08-19T11:56:23;14.43;;;12.95;;
15856;SDS011;8028;53.612;10.038;2022-08-19T11:58:50;14.13;;;12.63;;
15856;SDS011;8028;53.612;10.038;2022-08-19T12:01:17;13.43;;;12.23;;
15856;SDS011;8028;53.612;10.038;2022-08-19T12:03:45;14.55;;;12.95;;
15856;SDS011;8028;53.612;10.038;2022-08-19T12:06:13;14.77;;;13.27;;
15856;SDS011;8028;53.612;10.038;2022-08-19T12:08:41;14.98;;;12.65;;
15856;SDS011;8028;53.612;10.038;2022-08-19T12:11:08;15.20;;;13.65;;
15856;SDS011;8028;53.612;10.038;2022-08-19T12:13:35;13.85;;;12.43;;
15856;SDS011;8028;53.612;10.038;2022-08-19T12:16:08;14.57;;;13.18;;
15856;SDS011;8028;53.612;10.038;2022-08-19T12:18:38;13.30;;;11.88;;
15856;SDS011;8028;53.612;10.038;2022-08-19T12:21:11;14.35;;;12.85;;
15856;SDS011;8028;53.612;10.038;2022-08-19T12:23:40;14.80;;;13.30;;
15856;SDS011;8028;53.612;10.038;2022-08-19T12:26:08;14.18;;;12.70;;
15856;SDS011;8028;53.612;10.038;2022-08-19T12:28:34;13.48;;;12.07;;
15856;SDS011;8028;53.612;10.038;2022-08-19T12:31:00;14.63;;;11.25;;
15856;SDS011;8028;53.612;10.038;2022-08-19T12:33:26;14.98;;;12.82;;
15856;SDS011;8028;53.612;10.038;2022-08-19T12:35:53;13.68;;;12.27;;
15856;SDS011;8028;53.612;10.038;2022-08-19T12:38:19;13.07;;;11.77;;
15856;SDS011;8028;53.612;10.038;2022-08-19T12:40:48;13.43;;;12.13;;
15856;SDS011;8028;53.612;10.038;2022-08-19T12:43:16;14.00;;;12.60;;
15856;SDS011;8028;53.612;10.038;2022-08-19T12:45:42;13.40;;;12.10;;
15856;SDS011;8028;53.612;10.038;2022-08-19T12:48:10;13.48;;;12.05;;
15856;SDS011;8028;53.612;10.038;2022-08-19T12:50:38;12.15;;;10.77;;
15856;SDS011;8028;53.612;10.038;2022-08-19T12:53:05;11.65;;;10.50;;
15856;SDS011;8028;53.612;10.038;2022-08-19T12:55:30;11.50;;;10.50;;
15856;SDS011;8028;53.612;10.038;2022-08-19T12:57:56;13.13;;;11.77;;
15856;SDS011;8028;53.612;10.038;2022-08-19T13:00:22;12.18;;;10.93;;
15856;SDS011;8028;53.612;10.038;2022-08-19T13:02:50;13.15;;;10.82;;
15856;SDS011;8028;53.612;10.038;2022-08-19T13:05:19;11.07;;;9.98;;
15856;SDS011;8028;53.612;10.038;2022-08-19T13:07:48;12.95;;;11.27;;
15856;SDS011;8028;53.612;10.038;2022-08-19T13:10:15;11.60;;;10.60;;
15856;SDS011;8028;53.612;10.038;2022-08-19T13:12:43;12.50;;;11.32;;
15856;SDS011;8028;53.612;10.038;2022-08-19T13:15:10;13.45;;;12.13;;
15856;SDS011;8028;53.612;10.038;2022-08-19T13:17:37;12.35;;;11.27;;
15856;SDS011;8028;53.612;10.038;2022-08-19T13:20:03;12.88;;;11.70;;
15856;SDS011;8028;53.612;10.038;2022-08-19T13:22:32;12.70;;;11.60;;
15856;SDS011;8028;53.612;10.038;2022-08-19T13:24:58;12.13;;;10.68;;
15856;SDS011;8028;53.612;10.038;2022-08-19T13:27:24;12.32;;;11.23;;
15856;SDS011;8028;53.612;10.038;2022-08-19T13:29:49;10.80;;;9.85;;
15856;SDS011;8028;53.612;10.038;2022-08-19T13:32:33;13.90;;;12.60;;
15856;SDS011;8028;53.612;10.038;2022-08-19T13:35:18;12.30;;;11.10;;
15856;SDS011;8028;53.612;10.038;2022-08-19T13:37:43;13.77;;;10.85;;
15856;SDS011;8028;53.612;10.038;2022-08-19T13:42:39;14.70;;;12.35;;
15856;SDS011;8028;53.612;10.038;2022-08-19T13:45:06;12.70;;;11.60;;
15856;SDS011;8028;53.612;10.038;2022-08-19T13:47:33;11.98;;;10.88;;
15856;SDS011;8028;53.612;10.038;2022-08-19T13:50:03;12.65;;;11.60;;
15856;SDS011;8028;53.612;10.038;2022-08-19T13:52:29;12.48;;;11.27;;
15856;SDS011;8028;53.612;10.038;2022-08-19T13:54:55;11.77;;;10.82;;
15856;SDS011;8028;53.612;10.038;2022-08-19T13:57:21;10.38;;;9.38;;
15856;SDS011;8028;53.612;10.038;2022-08-19T13:59:47;11.02;;;9.98;;
15856;SDS011;8028;53.612;10.038;2022-08-19T14:02:13;11.82;;;10.70;;
15856;SDS011;8028;53.612;10.038;2022-08-19T14:04:38;12.00;;;10.77;;
15856;SDS011;8028;53.612;10.038;2022-08-19T14:07:04;11.55;;;10.45;;
15856;SDS011;8028;53.612;10.038;2022-08-19T14:09:30;11.23;;;10.23;;
15856;SDS011;8028;53.612;10.038;2022-08-19T14:11:56;11.35;;;10.20;;
15856;SDS011;8028;53.612;10.038;2022-08-19T14:14:22;11.85;;;10.40;;
15856;SDS011;8028;53.612;10.038;2022-08-19T14:16:48;13.25;;;12.00;;
15856;SDS011;8028;53.612;10.038;2022-08-19T14:19:14;11.35;;;10.35;;
15856;SDS011;8028;53.612;10.038;2022-08-19T14:21:40;11.35;;;10.40;;
15856;SDS011;8028;53.612;10.038;2022-08-19T14:24:06;11.32;;;10.18;;
15856;SDS011;8028;53.612;10.038;2022-08-19T14:26:33;14.05;;;12.10;;
15856;SDS011;8028;53.612;10.038;2022-08-19T14:28:59;13.43;;;11.65;;
15856;SDS011;8028;53.612;10.038;2022-08-19T14:31:26;15.45;;;13.95;;
15856;SDS011;8028;53.612;10.038;2022-08-19T14:33:52;13.80;;;12.55;;
15856;SDS011;8028;53.612;10.038;2022-08-19T14:36:18;14.15;;;12.85;;
15856;SDS011;8028;53.612;10.038;2022-08-19T14:38:46;13.80;;;12.60;;
15856;SDS011;8028;53.612;10.038;2022-08-19T14:41:20;14.27;;;13.00;;
15856;SDS011;8028;53.612;10.038;2022-08-19T14:43:48;12.45;;;11.25;;
15856;SDS011;8028;53.612;10.038;2022-08-19T14:46:17;13.32;;;12.07;;